F/V Si — FGYP — position and weather

sailwx.info

Track history (hours):
 
Tides and Currents Weather Stations Pressure Air Temp Water Temp Dewpoint Dewpoint Depression Visibility Wind Speed Wind Dir Waves Ship Positions

F/V Si

Last reported at 2017-Nov-20 00:30 UTC. Time now 2017-Nov-22 09:24 UTC.
Position N 44°35' W 001°15'.

Type: Fishing. MMSI: 227442000.

Date/timePositionNaut miles runAvg speedWind from/ knotsBaromVisibWave heightAir tempDewpointWater temp
2017-Nov-20 00:30N 44°35' W 001°15'3 6.9
2017-Nov-20 00:01N 44°36' W 001°20'4 7.8
2017-Nov-19 23:31N 44°40' W 001°20'4 7.9
2017-Nov-19 23:00N 44°44' W 001°19'4 7.9
2017-Nov-19 22:30N 44°47' W 001°18'4 8.0
2017-Nov-19 22:00N 44°51' W 001°18'4 8.1
2017-Nov-19 21:30N 44°55' W 001°17'4 8.2
2017-Nov-19 21:00N 44°60' W 001°16'5 8.3
2017-Nov-19 20:27N 45°04' W 001°16'18 7.4
2017-Nov-19 18:04N 45°22' W 001°13'1 1.8
2017-Nov-19 17:35N 45°23' W 001°14'0 1.9
2017-Nov-19 17:30N 45°23' W 001°14'1 2.1
2017-Nov-19 16:51N 45°24' W 001°15'2 4.5
2017-Nov-19 16:27N 45°22' W 001°15'1 0.3
2017-Nov-19 12:37N 45°22' W 001°13'1 5.5
2017-Nov-19 12:24N 45°23' W 001°14'3 7.3
2017-Nov-19 12:00N 45°26' W 001°13'1 1.3
2017-Nov-19 11:31N 45°26' W 001°14'1 2.3
2017-Nov-19 11:01N 45°25' W 001°14'0 0.8
2017-Nov-19 10:30N 45°25' W 001°14'1 2.8
2017-Nov-19 10:00N 45°24' W 001°15'3 4.8
2017-Nov-19 09:25N 45°21' W 001°16'1 1.3
2017-Nov-19 09:00N 45°21' W 001°16'4 6.8
2017-Nov-19 08:28N 45°18' W 001°12'1 1.5
2017-Nov-19 08:00N 45°18' W 001°13'3 6.1
2017-Nov-19 07:26N 45°21' W 001°13'4 8.4
2017-Nov-19 07:00N 45°25' W 001°14'2 4.0
2017-Nov-19 06:31N 45°27' W 001°14'0 0.5
2017-Nov-19 06:00N 45°27' W 001°14'0 0.7
2017-Nov-19 05:31N 45°27' W 001°14'0 0.5
2017-Nov-19 05:00N 45°27' W 001°13'0 0.4
2017-Nov-19 04:31N 45°27' W 001°13'0 0.4
2017-Nov-19 04:00N 45°27' W 001°13'0 0.3
2017-Nov-19 03:30N 45°28' W 001°13'0 0.2
2017-Nov-19 03:01N 45°28' W 001°13'0 0.1
2017-Nov-19 02:30N 45°28' W 001°13'0 0.1
2017-Nov-19 02:01N 45°28' W 001°13'0 0.2
2017-Nov-19 01:31N 45°28' W 001°13'0 0.4
2017-Nov-19 01:01N 45°27' W 001°13'0 0.4
2017-Nov-19 00:30N 45°27' W 001°13'0 0.8
2017-Nov-19 00:00N 45°27' W 001°13'1 2.3
2017-Nov-18 23:31N 45°27' W 001°14'3 5.4
2017-Nov-18 23:01N 45°24' W 001°14'3 5.5
2017-Nov-18 22:26N 45°21' W 001°13'1 1.1
2017-Nov-18 21:39N 45°21' W 001°12'1 5.8
2017-Nov-18 21:29N 45°20' W 001°12'3 5.9
2017-Nov-18 20:56N 45°16' W 001°12'1 1.9
2017-Nov-18 20:23N 45°17' W 001°13'2 5.9
2017-Nov-18 19:59N 45°19' W 001°13'1 3.1
2017-Nov-18 19:31N 45°20' W 001°15'2 3.9
2017-Nov-18 18:55N 45°20' W 001°12'2 4.2
2017-Nov-18 18:29N 45°21' W 001°14'1 1.6
2017-Nov-18 17:59N 45°21' W 001°15'0 0.2
2017-Nov-18 16:53N 45°22' W 001°15'3 5.7
2017-Nov-18 16:20N 45°19' W 001°16'3 7.2
2017-Nov-18 15:55N 45°21' W 001°19'1 0.5
2017-Nov-18 14:08N 45°20' W 001°19'1 5.8
2017-Nov-18 14:00N 45°20' W 001°18'2 3.7
2017-Nov-18 13:27N 45°22' W 001°17'1 1.1
2017-Nov-18 12:20N 45°22' W 001°15'1 4.5
2017-Nov-18 12:00N 45°24' W 001°15'3 5.6
2017-Nov-18 11:30N 45°21' W 001°15'2 1.5
2017-Nov-18 09:57N 45°22' W 001°18'3 5.6
2017-Nov-18 09:29N 45°19' W 001°16'2 2.1
2017-Nov-18 08:26N 45°22' W 001°17'1 1.4
2017-Nov-18 08:00N 45°21' W 001°18'2 3.1
2017-Nov-18 07:27N 45°20' W 001°20'1 1.6
2017-Nov-18 06:58N 45°21' W 001°19'2 0.2
2017-Nov-17 21:45N 45°21' W 001°16'2 1.7
2017-Nov-17 20:18N 45°23' W 001°16'2 1.5
2017-Nov-17 19:15N 45°22' W 001°15'0 1.7
2017-Nov-17 19:01N 45°21' W 001°15'1 1.0
2017-Nov-17 17:33N 45°22' W 001°13'0 6.9
2017-Nov-17 17:30N 45°22' W 001°14'3 3.8
2017-Nov-17 16:47N 45°21' W 001°18'1 2.4
2017-Nov-17 16:30N 45°21' W 001°19'0 0.3
2017-Nov-17 16:00N 45°21' W 001°18'3 2.7
2017-Nov-17 14:57N 45°24' W 001°16'3 5.8
2017-Nov-17 14:30N 45°21' W 001°16'0 0.5
2017-Nov-17 13:42N 45°21' W 001°15'3 7.1
2017-Nov-17 13:18N 45°24' W 001°15'2 5.5
2017-Nov-17 12:59N 45°26' W 001°15'1 1.9
2017-Nov-17 12:30N 45°25' W 001°15'1 1.7
2017-Nov-17 12:00N 45°24' W 001°15'1 1.3
2017-Nov-17 11:28N 45°23' W 001°15'0 0.7
2017-Nov-17 10:46N 45°23' W 001°15'1 1.8
2017-Nov-17 10:05N 45°24' W 001°15'1 8.0
2017-Nov-17 10:00N 45°25' W 001°15'2 3.4
2017-Nov-17 09:28N 45°27' W 001°15'1 2.3
2017-Nov-17 09:00N 45°27' W 001°14'3 6.3
2017-Nov-17 08:30N 45°24' W 001°11'4 7.1
2017-Nov-17 08:00N 45°21' W 001°12'3 6.4
2017-Nov-17 07:30N 45°21' W 001°17'1 1.8
2017-Nov-17 07:01N 45°21' W 001°18'1 1.1
2017-Nov-17 06:30N 45°21' W 001°19'1 2.7
2017-Nov-17 06:00N 45°22' W 001°17'2 4.5
2017-Nov-17 05:31N 45°24' W 001°15'2 4.9
2017-Nov-17 05:00N 45°26' W 001°15'0 0.4
2017-Nov-17 04:31N 45°26' W 001°15'2 3.0
2017-Nov-17 04:00N 45°25' W 001°17'3 5.5
2017-Nov-17 03:30N 45°23' W 001°18'3 6.1
2017-Nov-17 03:00N 45°20' W 001°18'1 1.2
2017-Nov-17 02:30N 45°19' W 001°18'0 0.4
2017-Nov-17 02:00N 45°20' W 001°18'0 0.4
2017-Nov-17 01:22N 45°20' W 001°18'7 2.2
2017-Nov-16 22:24N 45°26' W 001°17'1 1.6
2017-Nov-16 22:00N 45°26' W 001°18'1 0.6
2017-Nov-16 21:03N 45°26' W 001°18'1 4.8
2017-Nov-16 20:47N 45°27' W 001°19'4 8.2
2017-Nov-16 20:20N 45°23' W 001°19'2 4.6
2017-Nov-16 19:59N 45°25' W 001°19'0 0.6
2017-Nov-16 19:30N 45°25' W 001°19'4 8.1
2017-Nov-16 19:00N 45°20' W 001°19'6 7.3
2017-Nov-16 18:09N 45°16' W 001°14'2 7.8
2017-Nov-16 17:55N 45°14' W 001°14'10 7.1
2017-Nov-16 16:28N 45°04' W 001°12'2 2.4
2017-Nov-16 15:50N 45°02' W 001°13'5 2.2
2017-Nov-16 13:33N 44°57' W 001°13'0 6.6
2017-Nov-16 13:30N 44°57' W 001°14'4 8.6
2017-Nov-16 13:00N 45°00' W 001°18'4 8.5
2017-Nov-16 12:30N 45°03' W 001°22'1 1.8
2017-Nov-16 12:01N 45°04' W 001°23'1 1.6
2017-Nov-16 11:30N 45°05' W 001°23'1 1.7
2017-Nov-16 11:00N 45°06' W 001°23'3 5.5
2017-Nov-16 10:31N 45°03' W 001°25'1 2.2
2017-Nov-16 10:01N 45°04' W 001°25'1 2.1
2017-Nov-16 09:31N 45°05' W 001°25'1 1.8
2017-Nov-16 09:00N 45°06' W 001°25'1 1.9
2017-Nov-16 08:30N 45°07' W 001°25'3 4.7
2017-Nov-16 07:46N 45°04' W 001°23'2 8.6
2017-Nov-16 07:30N 45°02' W 001°23'4 8.6
2017-Nov-16 07:00N 44°57' W 001°23'4 8.4
2017-Nov-16 06:30N 44°53' W 001°23'4 8.3
2017-Nov-16 06:00N 44°49' W 001°23'4 8.2
2017-Nov-16 05:30N 44°45' W 001°22'4 8.2
2017-Nov-16 05:00N 44°41' W 001°21'4 8.0
2017-Nov-16 04:30N 44°37' W 001°20'4 7.3
2017-Nov-16 04:00N 44°34' W 001°17'4 8.4
2017-Nov-16 03:30N 44°38' W 001°14'4 7.7
2017-Nov-16 03:00N 44°40' W 001°10'1 1.8
2017-Nov-16 02:30N 44°39' W 001°09'0 0.0
2017-Nov-16 02:00N 44°39' W 001°09'0 0.0
2017-Nov-16 01:30N 44°39' W 001°09'0 0.0
2017-Nov-16 01:00N 44°39' W 001°09'0 0.2
2017-Nov-16 00:30N 44°39' W 001°09'0 0.1
2017-Nov-16 00:00N 44°39' W 001°09'2 4.4
2017-Nov-15 23:30N 44°40' W 001°12'5 9.4
2017-Nov-15 23:00N 44°35' W 001°15'3 5.7
2017-Nov-15 22:30N 44°35' W 001°19'4 8.5
2017-Nov-15 22:00N 44°40' W 001°18'4 8.4
2017-Nov-15 21:30N 44°44' W 001°17'4 8.3
2017-Nov-15 21:00N 44°48' W 001°16'4 8.3
2017-Nov-15 20:30N 44°52' W 001°15'4 8.2
2017-Nov-15 20:00N 44°56' W 001°14'1 0.8
2017-Nov-15 18:05N 44°57' W 001°13'1 6.8
2017-Nov-15 18:00N 44°58' W 001°13'4 8.2
2017-Nov-15 17:28N 45°01' W 001°17'5 0.8
2017-Nov-15 11:05N 45°02' W 001°24'0 2.3
2017-Nov-15 11:01N 45°02' W 001°24'5 1.9
2017-Nov-15 08:03N 45°07' W 001°26'0 0.7
2017-Nov-15 07:52N 45°07' W 001°26'1 0.4
2017-Nov-15 05:23N 45°08' W 001°26'17 4.3
2017-Nov-15 01:24N 44°51' W 001°23'1 1.8
2017-Nov-15 01:00N 44°52' W 001°23'1 2.0
2017-Nov-15 00:30N 44°53' W 001°23'1 2.1
2017-Nov-15 00:00N 44°54' W 001°23'0 1.0
2017-Nov-14 23:30N 44°54' W 001°23'9 7.6
2017-Nov-14 22:20N 45°03' W 001°21'3 8.2
2017-Nov-14 21:58N 45°06' W 001°21'5 8.1
2017-Nov-14 21:23N 45°11' W 001°20'12 8.1
2017-Nov-14 19:55N 45°23' W 001°18'26 5.0
2017-Nov-14 14:45N 44°57' W 001°24'2 7.9
2017-Nov-14 14:30N 44°55' W 001°23'3 6.1
2017-Nov-14 14:00N 44°52' W 001°23'0 0.7
2017-Nov-14 13:28N 44°51' W 001°23'4 7.7
2017-Nov-14 13:00N 44°48' W 001°22'4 7.9
2017-Nov-14 12:30N 44°44' W 001°21'4 7.9
2017-Nov-14 12:00N 44°40' W 001°21'1 1.2
2017-Nov-14 11:30N 44°40' W 001°21'1 2.2
2017-Nov-14 11:00N 44°41' W 001°21'1 1.6
2017-Nov-14 10:30N 44°41' W 001°21'1 2.0
2017-Nov-14 10:00N 44°43' W 001°21'1 2.2
2017-Nov-14 09:30N 44°44' W 001°21'1 2.3
2017-Nov-14 09:00N 44°43' W 001°22'1 1.8
2017-Nov-14 08:30N 44°44' W 001°22'1 2.7
2017-Nov-14 08:00N 44°45' W 001°22'2 4.0
2017-Nov-14 07:30N 44°47' W 001°22'2 3.7
2017-Nov-14 07:00N 44°45' W 001°23'2 3.9
2017-Nov-14 06:30N 44°43' W 001°24'2 3.8
2017-Nov-14 06:00N 44°41' W 001°25'1 2.7
2017-Nov-14 05:30N 44°40' W 001°25'0 0.4
2017-Nov-14 05:00N 44°40' W 001°25'0 0.5
2017-Nov-14 04:30N 44°40' W 001°25'0 0.6
2017-Nov-14 04:00N 44°41' W 001°25'0 0.7
2017-Nov-14 03:30N 44°41' W 001°24'0 0.8
2017-Nov-14 03:00N 44°41' W 001°24'0 0.8
2017-Nov-14 02:31N 44°41' W 001°23'0 0.8
2017-Nov-14 02:00N 44°42' W 001°23'0 0.8
2017-Nov-14 01:30N 44°42' W 001°23'0 0.8
2017-Nov-14 01:00N 44°43' W 001°23'0 0.9
2017-Nov-14 00:30N 44°43' W 001°22'0 0.8
2017-Nov-14 00:00N 44°43' W 001°22'0 0.8
2017-Nov-13 23:30N 44°44' W 001°22'0 0.8
2017-Nov-13 23:00N 44°44' W 001°22'0 0.7
2017-Nov-13 22:30N 44°45' W 001°22'0 0.8
2017-Nov-13 22:00N 44°45' W 001°22'11 0.5
2017-Nov-13 02:00N 44°39' W 001°09'0 0.0
2017-Nov-13 01:30N 44°39' W 001°09'0 0.0
2017-Nov-13 01:00N 44°39' W 001°09'0 0.0
2017-Nov-13 00:30N 44°39' W 001°09'0 0.0
2017-Nov-13 00:00N 44°39' W 001°09'2 4.2
2017-Nov-12 23:31N 44°40' W 001°12'4 8.2
2017-Nov-12 23:00N 44°36' W 001°14'4 7.1
2017-Nov-12 22:30N 44°34' W 001°18'4 7.3
2017-Nov-12 22:00N 44°37' W 001°21'2 4.0
2017-Nov-12 21:30N 44°35' W 001°22'2 3.4
2017-Nov-12 21:00N 44°34' W 001°22'4 8.3
2017-Nov-12 20:30N 44°38' W 001°22'4 8.2
2017-Nov-12 20:00N 44°42' W 001°22'4 8.1
2017-Nov-12 19:30N 44°46' W 001°22'4 8.1
2017-Nov-12 19:00N 44°50' W 001°22'4 8.0
2017-Nov-12 18:30N 44°54' W 001°22'9 7.6
2017-Nov-12 17:22N 45°03' W 001°21'17 7.6
2017-Nov-12 15:11N 45°19' W 001°17'0 1.8
2017-Nov-12 15:00N 45°19' W 001°17'1 0.5
2017-Nov-12 11:56N 45°20' W 001°17'1 2.5
2017-Nov-12 11:30N 45°19' W 001°17'4 1.4
2017-Nov-12 08:59N 45°22' W 001°19'1 1.6
2017-Nov-12 08:30N 45°21' W 001°19'1 1.9
2017-Nov-12 08:00N 45°21' W 001°19'2 0.2
2017-Nov-11 20:21N 45°23' W 001°18'1 1.8
2017-Nov-11 20:00N 45°23' W 001°18'1 1.6
2017-Nov-11 19:30N 45°23' W 001°17'1 1.7
2017-Nov-11 18:59N 45°22' W 001°18'1 0.4
2017-Nov-11 15:44N 45°21' W 001°16'0 1.2
2017-Nov-11 15:29N 45°20' W 001°17'1 1.2
2017-Nov-11 15:00N 45°20' W 001°17'2 1.5
2017-Nov-11 13:57N 45°18' W 001°17'3 1.6
2017-Nov-11 11:43N 45°22' W 001°18'0 1.9
2017-Nov-11 11:30N 45°21' W 001°18'1 0.2
2017-Nov-11 05:32N 45°22' W 001°18'0 0.8
2017-Nov-11 05:10N 45°22' W 001°18'0 0.7
2017-Nov-11 04:53N 45°22' W 001°19'1 0.5
2017-Nov-11 01:49N 45°23' W 001°18'1 0.8
2017-Nov-11 00:51N 45°23' W 001°17'3 1.7
2017-Nov-10 22:56N 45°19' W 001°17'2 0.4
2017-Nov-10 17:02N 45°22' W 001°18'0 3.9
2017-Nov-10 16:58N 45°21' W 001°18'1 0.5
2017-Nov-10 15:30N 45°22' W 001°19'1 1.7
2017-Nov-10 14:58N 45°21' W 001°19'1 1.1
2017-Nov-10 14:17N 45°22' W 001°18'1 2.0
2017-Nov-10 13:57N 45°21' W 001°18'2 2.2
2017-Nov-10 12:58N 45°19' W 001°17'3 0.6
2017-Nov-10 07:29N 45°21' W 001°15'0 0.3
2017-Nov-10 06:28N 45°21' W 001°15'0 0.4
2017-Nov-10 05:28N 45°21' W 001°16'1 0.6
2017-Nov-10 03:55N 45°20' W 001°16'0 0.7
2017-Nov-10 03:17N 45°20' W 001°17'1 0.4
2017-Nov-10 01:43N 45°19' W 001°17'0 0.2
2017-Nov-10 01:27N 45°19' W 001°17'  
Track history (hours):
 
Tides and Currents Weather Stations Pressure Air Temp Water Temp Dewpoint Dewpoint Depression Visibility Wind Speed Wind Dir Waves Ship Positions

F/V Si

Last reported at 2017-Nov-20 00:30 UTC. Time now 2017-Nov-22 09:24 UTC.
Position N 44°35' W 001°15'.

Type: Fishing. MMSI: 227442000.

Date/timePositionNaut miles runAvg speedWind from/ knotsBaromVisibWave heightAir tempDewpointWater temp
2017-Nov-20 00:30N 44°35' W 001°15'3 6.9
2017-Nov-20 00:01N 44°36' W 001°20'4 7.8
2017-Nov-19 23:31N 44°40' W 001°20'4 7.9
2017-Nov-19 23:00N 44°44' W 001°19'4 7.9
2017-Nov-19 22:30N 44°47' W 001°18'4 8.0
2017-Nov-19 22:00N 44°51' W 001°18'4 8.1
2017-Nov-19 21:30N 44°55' W 001°17'4 8.2
2017-Nov-19 21:00N 44°60' W 001°16'5 8.3
2017-Nov-19 20:27N 45°04' W 001°16'18 7.4
2017-Nov-19 18:04N 45°22' W 001°13'1 1.8
2017-Nov-19 17:35N 45°23' W 001°14'0 1.9
2017-Nov-19 17:30N 45°23' W 001°14'1 2.1
2017-Nov-19 16:51N 45°24' W 001°15'2 4.5
2017-Nov-19 16:27N 45°22' W 001°15'1 0.3
2017-Nov-19 12:37N 45°22' W 001°13'1 5.5
2017-Nov-19 12:24N 45°23' W 001°14'3 7.3
2017-Nov-19 12:00N 45°26' W 001°13'1 1.3
2017-Nov-19 11:31N 45°26' W 001°14'1 2.3
2017-Nov-19 11:01N 45°25' W 001°14'0 0.8
2017-Nov-19 10:30N 45°25' W 001°14'1 2.8
2017-Nov-19 10:00N 45°24' W 001°15'3 4.8
2017-Nov-19 09:25N 45°21' W 001°16'1 1.3
2017-Nov-19 09:00N 45°21' W 001°16'4 6.8
2017-Nov-19 08:28N 45°18' W 001°12'1 1.5
2017-Nov-19 08:00N 45°18' W 001°13'3 6.1
2017-Nov-19 07:26N 45°21' W 001°13'4 8.4
2017-Nov-19 07:00N 45°25' W 001°14'2 4.0
2017-Nov-19 06:31N 45°27' W 001°14'0 0.5
2017-Nov-19 06:00N 45°27' W 001°14'0 0.7
2017-Nov-19 05:31N 45°27' W 001°14'0 0.5
2017-Nov-19 05:00N 45°27' W 001°13'0 0.4
2017-Nov-19 04:31N 45°27' W 001°13'0 0.4
2017-Nov-19 04:00N 45°27' W 001°13'0 0.3
2017-Nov-19 03:30N 45°28' W 001°13'0 0.2
2017-Nov-19 03:01N 45°28' W 001°13'0 0.1
2017-Nov-19 02:30N 45°28' W 001°13'0 0.1
2017-Nov-19 02:01N 45°28' W 001°13'0 0.2
2017-Nov-19 01:31N 45°28' W 001°13'0 0.4
2017-Nov-19 01:01N 45°27' W 001°13'0 0.4
2017-Nov-19 00:30N 45°27' W 001°13'0 0.8
2017-Nov-19 00:00N 45°27' W 001°13'1 2.3
2017-Nov-18 23:31N 45°27' W 001°14'3 5.4
2017-Nov-18 23:01N 45°24' W 001°14'3 5.5
2017-Nov-18 22:26N 45°21' W 001°13'1 1.1
2017-Nov-18 21:39N 45°21' W 001°12'1 5.8
2017-Nov-18 21:29N 45°20' W 001°12'3 5.9
2017-Nov-18 20:56N 45°16' W 001°12'1 1.9
2017-Nov-18 20:23N 45°17' W 001°13'2 5.9
2017-Nov-18 19:59N 45°19' W 001°13'1 3.1
2017-Nov-18 19:31N 45°20' W 001°15'2 3.9
2017-Nov-18 18:55N 45°20' W 001°12'2 4.2
2017-Nov-18 18:29N 45°21' W 001°14'1 1.6
2017-Nov-18 17:59N 45°21' W 001°15'0 0.2
2017-Nov-18 16:53N 45°22' W 001°15'3 5.7
2017-Nov-18 16:20N 45°19' W 001°16'3 7.2
2017-Nov-18 15:55N 45°21' W 001°19'1 0.5
2017-Nov-18 14:08N 45°20' W 001°19'1 5.8
2017-Nov-18 14:00N 45°20' W 001°18'2 3.7
2017-Nov-18 13:27N 45°22' W 001°17'1 1.1
2017-Nov-18 12:20N 45°22' W 001°15'1 4.5
2017-Nov-18 12:00N 45°24' W 001°15'3 5.6
2017-Nov-18 11:30N 45°21' W 001°15'2 1.5
2017-Nov-18 09:57N 45°22' W 001°18'3 5.6
2017-Nov-18 09:29N 45°19' W 001°16'2 2.1
2017-Nov-18 08:26N 45°22' W 001°17'1 1.4
2017-Nov-18 08:00N 45°21' W 001°18'2 3.1
2017-Nov-18 07:27N 45°20' W 001°20'1 1.6
2017-Nov-18 06:58N 45°21' W 001°19'2 0.2
2017-Nov-17 21:45N 45°21' W 001°16'2 1.7
2017-Nov-17 20:18N 45°23' W 001°16'2 1.5
2017-Nov-17 19:15N 45°22' W 001°15'0 1.7
2017-Nov-17 19:01N 45°21' W 001°15'1 1.0
2017-Nov-17 17:33N 45°22' W 001°13'0 6.9
2017-Nov-17 17:30N 45°22' W 001°14'3 3.8
2017-Nov-17 16:47N 45°21' W 001°18'1 2.4
2017-Nov-17 16:30N 45°21' W 001°19'0 0.3
2017-Nov-17 16:00N 45°21' W 001°18'3 2.7
2017-Nov-17 14:57N 45°24' W 001°16'3 5.8
2017-Nov-17 14:30N 45°21' W 001°16'0 0.5
2017-Nov-17 13:42N 45°21' W 001°15'3 7.1
2017-Nov-17 13:18N 45°24' W 001°15'2 5.5
2017-Nov-17 12:59N 45°26' W 001°15'1 1.9
2017-Nov-17 12:30N 45°25' W 001°15'1 1.7
2017-Nov-17 12:00N 45°24' W 001°15'1 1.3
2017-Nov-17 11:28N 45°23' W 001°15'0 0.7
2017-Nov-17 10:46N 45°23' W 001°15'1 1.8
2017-Nov-17 10:05N 45°24' W 001°15'1 8.0
2017-Nov-17 10:00N 45°25' W 001°15'2 3.4
2017-Nov-17 09:28N 45°27' W 001°15'1 2.3
2017-Nov-17 09:00N 45°27' W 001°14'3 6.3
2017-Nov-17 08:30N 45°24' W 001°11'4 7.1
2017-Nov-17 08:00N 45°21' W 001°12'3 6.4
2017-Nov-17 07:30N 45°21' W 001°17'1 1.8
2017-Nov-17 07:01N 45°21' W 001°18'1 1.1
2017-Nov-17 06:30N 45°21' W 001°19'1 2.7
2017-Nov-17 06:00N 45°22' W 001°17'2 4.5
2017-Nov-17 05:31N 45°24' W 001°15'2 4.9
2017-Nov-17 05:00N 45°26' W 001°15'0 0.4
2017-Nov-17 04:31N 45°26' W 001°15'2 3.0
2017-Nov-17 04:00N 45°25' W 001°17'3 5.5
2017-Nov-17 03:30N 45°23' W 001°18'3 6.1
2017-Nov-17 03:00N 45°20' W 001°18'1 1.2
2017-Nov-17 02:30N 45°19' W 001°18'0 0.4
2017-Nov-17 02:00N 45°20' W 001°18'0 0.4
2017-Nov-17 01:22N 45°20' W 001°18'7 2.2
2017-Nov-16 22:24N 45°26' W 001°17'1 1.6
2017-Nov-16 22:00N 45°26' W 001°18'1 0.6
2017-Nov-16 21:03N 45°26' W 001°18'1 4.8
2017-Nov-16 20:47N 45°27' W 001°19'4 8.2
2017-Nov-16 20:20N 45°23' W 001°19'2 4.6
2017-Nov-16 19:59N 45°25' W 001°19'0 0.6
2017-Nov-16 19:30N 45°25' W 001°19'4 8.1
2017-Nov-16 19:00N 45°20' W 001°19'6 7.3
2017-Nov-16 18:09N 45°16' W 001°14'2 7.8
2017-Nov-16 17:55N 45°14' W 001°14'10 7.1
2017-Nov-16 16:28N 45°04' W 001°12'2 2.4
2017-Nov-16 15:50N 45°02' W 001°13'5 2.2
2017-Nov-16 13:33N 44°57' W 001°13'0 6.6
2017-Nov-16 13:30N 44°57' W 001°14'4 8.6
2017-Nov-16 13:00N 45°00' W 001°18'4 8.5
2017-Nov-16 12:30N 45°03' W 001°22'1 1.8
2017-Nov-16 12:01N 45°04' W 001°23'1 1.6
2017-Nov-16 11:30N 45°05' W 001°23'1 1.7
2017-Nov-16 11:00N 45°06' W 001°23'3 5.5
2017-Nov-16 10:31N 45°03' W 001°25'1 2.2
2017-Nov-16 10:01N 45°04' W 001°25'1 2.1
2017-Nov-16 09:31N 45°05' W 001°25'1 1.8
2017-Nov-16 09:00N 45°06' W 001°25'1 1.9
2017-Nov-16 08:30N 45°07' W 001°25'3 4.7
2017-Nov-16 07:46N 45°04' W 001°23'2 8.6
2017-Nov-16 07:30N 45°02' W 001°23'4 8.6
2017-Nov-16 07:00N 44°57' W 001°23'4 8.4
2017-Nov-16 06:30N 44°53' W 001°23'4 8.3
2017-Nov-16 06:00N 44°49' W 001°23'4 8.2
2017-Nov-16 05:30N 44°45' W 001°22'4 8.2
2017-Nov-16 05:00N 44°41' W 001°21'4 8.0
2017-Nov-16 04:30N 44°37' W 001°20'4 7.3
2017-Nov-16 04:00N 44°34' W 001°17'4 8.4
2017-Nov-16 03:30N 44°38' W 001°14'4 7.7
2017-Nov-16 03:00N 44°40' W 001°10'1 1.8
2017-Nov-16 02:30N 44°39' W 001°09'0 0.0
2017-Nov-16 02:00N 44°39' W 001°09'0 0.0
2017-Nov-16 01:30N 44°39' W 001°09'0 0.0
2017-Nov-16 01:00N 44°39' W 001°09'0 0.2
2017-Nov-16 00:30N 44°39' W 001°09'0 0.1
2017-Nov-16 00:00N 44°39' W 001°09'2 4.4
2017-Nov-15 23:30N 44°40' W 001°12'5 9.4
2017-Nov-15 23:00N 44°35' W 001°15'3 5.7
2017-Nov-15 22:30N 44°35' W 001°19'4 8.5
2017-Nov-15 22:00N 44°40' W 001°18'4 8.4
2017-Nov-15 21:30N 44°44' W 001°17'4 8.3
2017-Nov-15 21:00N 44°48' W 001°16'4 8.3
2017-Nov-15 20:30N 44°52' W 001°15'4 8.2
2017-Nov-15 20:00N 44°56' W 001°14'1 0.8
2017-Nov-15 18:05N 44°57' W 001°13'1 6.8
2017-Nov-15 18:00N 44°58' W 001°13'4 8.2
2017-Nov-15 17:28N 45°01' W 001°17'5 0.8
2017-Nov-15 11:05N 45°02' W 001°24'0 2.3
2017-Nov-15 11:01N 45°02' W 001°24'5 1.9
2017-Nov-15 08:03N 45°07' W 001°26'0 0.7
2017-Nov-15 07:52N 45°07' W 001°26'1 0.4
2017-Nov-15 05:23N 45°08' W 001°26'17 4.3
2017-Nov-15 01:24N 44°51' W 001°23'1 1.8
2017-Nov-15 01:00N 44°52' W 001°23'1 2.0
2017-Nov-15 00:30N 44°53' W 001°23'1 2.1
2017-Nov-15 00:00N 44°54' W 001°23'0 1.0
2017-Nov-14 23:30N 44°54' W 001°23'9 7.6
2017-Nov-14 22:20N 45°03' W 001°21'3 8.2
2017-Nov-14 21:58N 45°06' W 001°21'5 8.1
2017-Nov-14 21:23N 45°11' W 001°20'12 8.1
2017-Nov-14 19:55N 45°23' W 001°18'26 5.0
2017-Nov-14 14:45N 44°57' W 001°24'2 7.9
2017-Nov-14 14:30N 44°55' W 001°23'3 6.1
2017-Nov-14 14:00N 44°52' W 001°23'0 0.7
2017-Nov-14 13:28N 44°51' W 001°23'4 7.7
2017-Nov-14 13:00N 44°48' W 001°22'4 7.9
2017-Nov-14 12:30N 44°44' W 001°21'4 7.9
2017-Nov-14 12:00N 44°40' W 001°21'1 1.2
2017-Nov-14 11:30N 44°40' W 001°21'1 2.2
2017-Nov-14 11:00N 44°41' W 001°21'1 1.6
2017-Nov-14 10:30N 44°41' W 001°21'1 2.0
2017-Nov-14 10:00N 44°43' W 001°21'1 2.2
2017-Nov-14 09:30N 44°44' W 001°21'1 2.3
2017-Nov-14 09:00N 44°43' W 001°22'1 1.8
2017-Nov-14 08:30N 44°44' W 001°22'1 2.7
2017-Nov-14 08:00N 44°45' W 001°22'2 4.0
2017-Nov-14 07:30N 44°47' W 001°22'2 3.7
2017-Nov-14 07:00N 44°45' W 001°23'2 3.9
2017-Nov-14 06:30N 44°43' W 001°24'2 3.8
2017-Nov-14 06:00N 44°41' W 001°25'1 2.7
2017-Nov-14 05:30N 44°40' W 001°25'0 0.4
2017-Nov-14 05:00N 44°40' W 001°25'0 0.5
2017-Nov-14 04:30N 44°40' W 001°25'0 0.6
2017-Nov-14 04:00N 44°41' W 001°25'0 0.7
2017-Nov-14 03:30N 44°41' W 001°24'0 0.8
2017-Nov-14 03:00N 44°41' W 001°24'0 0.8
2017-Nov-14 02:31N 44°41' W 001°23'0 0.8
2017-Nov-14 02:00N 44°42' W 001°23'0 0.8
2017-Nov-14 01:30N 44°42' W 001°23'0 0.8
2017-Nov-14 01:00N 44°43' W 001°23'0 0.9
2017-Nov-14 00:30N 44°43' W 001°22'0 0.8
2017-Nov-14 00:00N 44°43' W 001°22'0 0.8
2017-Nov-13 23:30N 44°44' W 001°22'0 0.8
2017-Nov-13 23:00N 44°44' W 001°22'0 0.7
2017-Nov-13 22:30N 44°45' W 001°22'0 0.8
2017-Nov-13 22:00N 44°45' W 001°22'11 0.5
2017-Nov-13 02:00N 44°39' W 001°09'0 0.0
2017-Nov-13 01:30N 44°39' W 001°09'0 0.0
2017-Nov-13 01:00N 44°39' W 001°09'0 0.0
2017-Nov-13 00:30N 44°39' W 001°09'0 0.0
2017-Nov-13 00:00N 44°39' W 001°09'2 4.2
2017-Nov-12 23:31N 44°40' W 001°12'4 8.2
2017-Nov-12 23:00N 44°36' W 001°14'4 7.1
2017-Nov-12 22:30N 44°34' W 001°18'4 7.3
2017-Nov-12 22:00N 44°37' W 001°21'2 4.0
2017-Nov-12 21:30N 44°35' W 001°22'2 3.4
2017-Nov-12 21:00N 44°34' W 001°22'4 8.3
2017-Nov-12 20:30N 44°38' W 001°22'4 8.2
2017-Nov-12 20:00N 44°42' W 001°22'4 8.1
2017-Nov-12 19:30N 44°46' W 001°22'4 8.1
2017-Nov-12 19:00N 44°50' W 001°22'4 8.0
2017-Nov-12 18:30N 44°54' W 001°22'9 7.6
2017-Nov-12 17:22N 45°03' W 001°21'17 7.6
2017-Nov-12 15:11N 45°19' W 001°17'0 1.8
2017-Nov-12 15:00N 45°19' W 001°17'1 0.5
2017-Nov-12 11:56N 45°20' W 001°17'1 2.5
2017-Nov-12 11:30N 45°19' W 001°17'4 1.4
2017-Nov-12 08:59N 45°22' W 001°19'1 1.6
2017-Nov-12 08:30N 45°21' W 001°19'1 1.9
2017-Nov-12 08:00N 45°21' W 001°19'2 0.2
2017-Nov-11 20:21N 45°23' W 001°18'1 1.8
2017-Nov-11 20:00N 45°23' W 001°18'1 1.6
2017-Nov-11 19:30N 45°23' W 001°17'1 1.7
2017-Nov-11 18:59N 45°22' W 001°18'1 0.4
2017-Nov-11 15:44N 45°21' W 001°16'0 1.2
2017-Nov-11 15:29N 45°20' W 001°17'1 1.2
2017-Nov-11 15:00N 45°20' W 001°17'2 1.5
2017-Nov-11 13:57N 45°18' W 001°17'3 1.6
2017-Nov-11 11:43N 45°22' W 001°18'0 1.9
2017-Nov-11 11:30N 45°21' W 001°18'1 0.2
2017-Nov-11 05:32N 45°22' W 001°18'0 0.8
2017-Nov-11 05:10N 45°22' W 001°18'0 0.7
2017-Nov-11 04:53N 45°22' W 001°19'1 0.5
2017-Nov-11 01:49N 45°23' W 001°18'1 0.8
2017-Nov-11 00:51N 45°23' W 001°17'3 1.7
2017-Nov-10 22:56N 45°19' W 001°17'2 0.4
2017-Nov-10 17:02N 45°22' W 001°18'0 3.9
2017-Nov-10 16:58N 45°21' W 001°18'1 0.5
2017-Nov-10 15:30N 45°22' W 001°19'1 1.7
2017-Nov-10 14:58N 45°21' W 001°19'1 1.1
2017-Nov-10 14:17N 45°22' W 001°18'1 2.0
2017-Nov-10 13:57N 45°21' W 001°18'2 2.2
2017-Nov-10 12:58N 45°19' W 001°17'3 0.6
2017-Nov-10 07:29N 45°21' W 001°15'0 0.3
2017-Nov-10 06:28N 45°21' W 001°15'0 0.4
2017-Nov-10 05:28N 45°21' W 001°16'1 0.6
2017-Nov-10 03:55N 45°20' W 001°16'0 0.7
2017-Nov-10 03:17N 45°20' W 001°17'1 0.4
2017-Nov-10 01:43N 45°19' W 001°17'0 0.2
2017-Nov-10 01:27N 45°19' W 001°17'  

Dump ship's entire track history